Time;durP1;ratioP1;P1;durP2;ratioP2;P2;SDS_P1;SDS_P2;PMS_P1;PMS_P2;Temp;Humidity;BMP_temperature;BMP_pressure;BME280_temperature;BME280_humidity;BME280_pressure;Samples;Min_cycle;Max_cycle;Signal;HPM_P1;HPM_P2
2022/08/20 00:00:47;;;;;;;11.57;10.35;;;;;;;24.48;50.51;92508.25;5033093;28;20213;-71
2022/08/20 00:03:17;;;;;;;10.25;9.35;;;;;;;24.70;49.96;92515.38;5033820;28;20213;-71
2022/08/20 00:06:06;;;;;;;10.90;9.90;;;;;;;24.68;49.86;92515.75;5033117;28;20311;-71
2022/08/20 00:08:32;;;;;;;11.23;10.32;;;;;;;24.61;50.23;92515.63;5033443;28;20260;-71
2022/08/20 00:10:59;;;;;;;12.88;10.02;;;;;;;24.50;50.40;92500.66;5033291;28;20194;-72
2022/08/20 00:13:35;;;;;;;10.30;9.30;;;;;;;24.59;49.92;92503.81;5033260;28;20208;-71
2022/08/20 00:16:01;;;;;;;11.73;10.55;;;;;;;24.54;50.71;92512.91;5033175;28;20272;-71
2022/08/20 00:18:27;;;;;;;11.27;10.40;;;;;;;24.43;50.58;92498.69;5032787;28;20213;-72
2022/08/20 00:20:54;;;;;;;11.15;10.02;;;;;;;24.50;50.75;92516.69;5033236;28;20205;-71
2022/08/20 00:23:21;;;;;;;10.93;10.07;;;;;;;24.45;50.55;92520.41;5033286;28;20253;-72
2022/08/20 00:25:47;;;;;;;11.07;10.15;;;;;;;24.41;50.65;92508.19;5032795;28;20214;-71
2022/08/20 00:28:13;;;;;;;10.77;10.02;;;;;;;24.47;50.27;92517.38;5033239;28;20204;-71
2022/08/20 00:30:41;;;;;;;10.38;9.68;;;;;;;24.40;50.00;92496.75;5040691;28;20220;-71
2022/08/20 00:33:12;;;;;;;10.95;10.05;;;;;;;24.62;50.11;92513.75;5053221;28;20186;-71
2022/08/20 00:35:43;;;;;;;11.50;10.50;;;;;;;24.54;50.73;92514.81;5042821;28;20221;-71
2022/08/20 00:38:08;;;;;;;10.57;9.88;;;;;;;24.48;50.86;92511.72;5033545;28;20182;-72
2022/08/20 00:40:38;;;;;;;12.35;11.35;;;;;;;24.46;50.30;92505.19;5032212;28;20224;-72
2022/08/20 00:43:07;;;;;;;11.10;10.30;;;;;;;24.39;51.31;92521.13;5033248;28;20178;-72
2022/08/20 00:45:34;;;;;;;12.25;10.68;;;;;;;24.26;50.88;92503.84;5031924;28;20220;-73
2022/08/20 00:48:00;;;;;;;12.10;10.88;;;;;;;24.45;51.08;92523.09;5030809;28;20178;-71
2022/08/20 00:50:32;;;;;;;9.93;9.23;;;;;;;24.32;51.10;92499.69;5032041;28;20253;-71
2022/08/20 00:52:59;;;;;;;10.85;10.05;;;;;;;24.34;51.35;92508.91;5032333;28;20185;-71
2022/08/20 00:55:25;;;;;;;11.43;10.35;;;;;;;24.23;51.90;92512.56;5031141;28;20240;-71
2022/08/20 00:57:54;;;;;;;10.80;9.90;;;;;;;24.18;51.64;92510.22;5032853;28;20390;-71
2022/08/20 01:00:24;;;;;;;11.57;10.77;;;;;;;24.26;51.28;92501.94;5031742;28;20231;-70
2022/08/20 01:02:50;;;;;;;11.82;10.82;;;;;;;24.21;51.65;92507.59;5032607;28;20195;-72
2022/08/20 01:05:16;;;;;;;11.00;10.10;;;;;;;24.21;51.63;92502.25;5032038;28;20245;-71
2022/08/20 01:07:43;;;;;;;11.60;10.70;;;;;;;24.20;51.67;92498.06;5031802;28;20213;-71
2022/08/20 01:10:09;;;;;;;12.52;11.18;;;;;;;24.11;51.98;92489.56;5030723;28;20225;-72
2022/08/20 01:12:38;;;;;;;11.80;10.80;;;;;;;24.09;51.97;92480.41;5023010;28;20224;-70
2022/08/20 01:15:09;;;;;;;12.35;10.43;;;;;;;24.19;51.91;92474.41;5015705;28;20213;-71
2022/08/20 01:17:38;;;;;;;11.80;10.65;;;;;;;24.17;51.73;92471.34;5032337;28;20212;-71
2022/08/20 01:20:13;;;;;;;10.70;9.80;;;;;;;24.17;52.00;92479.34;5031611;28;20276;-71
2022/08/20 01:26:10;;;;;;;11.30;10.48;;;;;;;23.89;51.59;92426.44;5012101;28;20228;-71
2022/08/20 01:28:43;;;;;;;11.10;10.07;;;;;;;24.21;51.54;92472.91;4998130;28;20204;-71
2022/08/20 01:31:13;;;;;;;11.85;10.70;;;;;;;24.17;51.00;92452.66;5031780;28;20190;-71
2022/08/20 01:33:39;;;;;;;12.15;11.15;;;;;;;24.30;50.91;92475.28;5031530;28;20189;-71
2022/08/20 01:36:06;;;;;;;12.05;11.07;;;;;;;24.23;50.94;92473.31;5031768;28;20255;-71
2022/08/20 01:38:32;;;;;;;13.00;11.82;;;;;;;24.26;51.09;92485.94;5031839;28;20216;-72
2022/08/20 01:41:14;;;;;;;10.60;9.75;;;;;;;24.29;51.04;92479.09;5031625;28;20181;-72
2022/08/20 01:43:40;;;;;;;11.43;10.48;;;;;;;24.18;51.62;92472.88;5031285;28;21122;-71
2022/08/20 01:46:08;;;;;;;10.80;9.93;;;;;;;24.19;51.34;92466.41;5041065;28;20251;-71
2022/08/20 01:48:34;;;;;;;12.32;11.27;;;;;;;24.16;51.02;92448.44;5031419;28;20189;-71
2022/08/20 01:51:16;;;;;;;11.25;10.30;;;;;;;24.30;50.78;92464.59;5035101;28;20184;-72
2022/08/20 01:53:46;;;;;;;12.07;10.95;;;;;;;24.38;50.42;92460.88;5031054;28;20238;-71
2022/08/20 01:56:16;;;;;;;11.00;10.00;;;;;;;24.30;51.35;92459.25;5031145;28;20209;-72
2022/08/20 01:58:48;;;;;;;10.95;10.05;;;;;;;24.08;51.32;92426.25;5030902;28;20240;-72
2022/08/20 02:01:36;;;;;;;11.05;9.93;;;;;;;24.17;51.46;92452.66;5030911;28;20717;-72
2022/08/20 02:04:05;;;;;;;11.55;10.55;;;;;;;24.23;51.77;92454.66;5031129;28;20246;-71
2022/08/20 02:06:33;;;;;;;11.95;10.82;;;;;;;24.20;51.92;92457.28;5031077;28;20200;-71
2022/08/20 02:09:00;;;;;;;11.20;10.20;;;;;;;24.16;51.47;92461.78;5031539;28;20233;-72
2022/08/20 02:11:28;;;;;;;11.63;10.57;;;;;;;24.17;51.89;92456.09;5030737;28;20340;-71
2022/08/20 02:13:54;;;;;;;10.75;9.85;;;;;;;24.03;52.04;92441.84;5011506;28;20243;-73
2022/08/20 02:16:30;;;;;;;11.95;11.00;;;;;;;23.88;51.72;92411.53;5025123;28;20205;-71
2022/08/20 02:19:01;;;;;;;10.40;9.60;;;;;;;24.02;52.36;92448.28;5030915;28;20267;-72
2022/08/20 02:21:30;;;;;;;11.75;10.82;;;;;;;23.96;52.70;92461.19;5030669;28;20184;-72
2022/08/20 02:23:57;;;;;;;10.90;10.10;;;;;;;24.05;52.22;92458.25;5030833;28;20236;-72
2022/08/20 02:26:23;;;;;;;11.43;10.43;;;;;;;24.04;52.19;92446.81;5030695;28;20200;-71
2022/08/20 02:28:50;;;;;;;11.75;10.93;;;;;;;23.99;52.51;92454.34;5030812;28;20225;-71
2022/08/20 02:31:18;;;;;;;10.88;9.98;;;;;;;23.91;52.82;92447.41;5030890;28;20203;-70
2022/08/20 02:33:44;;;;;;;10.95;10.05;;;;;;;23.72;53.46;92440.34;5030026;28;20236;-71
2022/08/20 02:36:11;;;;;;;12.90;9.77;;;;;;;23.61;54.30;92461.50;5030495;28;20223;-72
2022/08/20 02:38:39;;;;;;;10.93;10.18;;;;;;;23.62;54.58;92463.06;5030659;28;20240;-72
2022/08/20 02:41:05;;;;;;;11.82;10.82;;;;;;;23.13;56.35;92462.34;5030761;28;20827;-69
2022/08/20 02:43:31;;;;;;;12.65;11.32;;;;;;;23.18;56.25;92461.25;5030413;28;20217;-71
2022/08/20 02:45:58;;;;;;;12.73;11.52;;;;;;;22.77;57.80;92460.28;5032491;28;20212;-70
2022/08/20 02:48:24;;;;;;;13.13;11.88;;;;;;;22.67;58.56;92465.44;5029965;28;20256;-72
2022/08/20 02:50:53;;;;;;;11.82;10.85;;;;;;;22.67;58.25;92466.22;5030346;28;20198;-70
2022/08/20 02:53:18;;;;;;;11.88;10.88;;;;;;;22.68;58.40;92459.75;5030668;28;20250;-71
2022/08/20 02:55:44;;;;;;;11.90;10.57;;;;;;;22.52;58.91;92459.13;5029644;28;20945;-72
2022/08/20 02:58:10;;;;;;;12.35;11.10;;;;;;;22.50;58.96;92461.34;5030400;28;20212;-70
2022/08/20 03:00:36;;;;;;;12.70;11.50;;;;;;;22.63;58.76;92469.94;5029573;28;20209;-71
2022/08/20 03:03:01;;;;;;;12.43;11.15;;;;;;;22.49;59.24;92459.03;5030347;28;20245;-71
2022/08/20 03:05:27;;;;;;;13.02;12.02;;;;;;;22.52;59.36;92475.09;5029720;28;20222;-71
2022/08/20 03:07:52;;;;;;;11.98;10.88;;;;;;;22.28;60.09;92475.38;5030685;28;20213;-71
2022/08/20 03:10:32;;;;;;;11.88;10.98;;;;;;;22.23;60.22;92470.34;5029836;28;20217;-71
2022/08/20 03:12:59;;;;;;;12.27;11.20;;;;;;;22.02;60.67;92436.16;5026119;28;20186;-71
2022/08/20 03:15:25;;;;;;;12.55;11.35;;;;;;;22.15;61.63;92472.13;5022366;28;20231;-71
2022/08/20 03:17:50;;;;;;;16.27;11.13;;;;;;;22.00;61.86;92472.22;5049740;28;20268;-70
2022/08/20 03:20:16;;;;;;;12.15;11.15;;;;;;;22.15;61.58;92471.34;5044183;28;20219;-71
2022/08/20 03:22:41;;;;;;;12.48;11.38;;;;;;;22.04;61.56;92465.84;5030710;28;20172;-71
2022/08/20 03:25:07;;;;;;;14.68;11.70;;;;;;;21.95;61.79;92467.94;5029457;28;20286;-70
2022/08/20 03:27:33;;;;;;;13.10;12.00;;;;;;;21.83;62.54;92476.06;5030183;28;20200;-71
2022/08/20 03:29:58;;;;;;;13.35;12.15;;;;;;;22.00;62.23;92459.69;5029427;28;20229;-71
2022/08/20 03:32:24;;;;;;;13.13;12.07;;;;;;;21.91;63.17;92476.97;5030255;28;20197;-71
2022/08/20 03:34:49;;;;;;;12.15;11.15;;;;;;;21.85;63.38;92481.03;5030629;28;20248;-71
2022/08/20 03:37:14;;;;;;;11.43;10.52;;;;;;;21.76;63.32;92475.19;5041932;28;20212;-70
2022/08/20 03:39:40;;;;;;;13.02;11.70;;;;;;;21.81;63.74;92483.63;5029402;28;20282;-71
2022/08/20 03:42:05;;;;;;;12.82;11.82;;;;;;;21.72;63.88;92476.94;5030080;28;20190;-71
2022/08/20 03:44:31;;;;;;;12.93;11.77;;;;;;;21.75;63.76;92479.72;5029615;28;20222;-71
2022/08/20 03:46:57;;;;;;;13.13;11.85;;;;;;;21.92;63.07;92468.66;5039016;28;20192;-71
2022/08/20 03:49:23;;;;;;;12.55;11.50;;;;;;;21.74;64.17;92472.06;5029487;28;20848;-71
2022/08/20 03:51:49;;;;;;;11.65;10.73;;;;;;;21.91;64.05;92487.63;5047493;28;20218;-71
2022/08/20 03:54:14;;;;;;;13.13;11.88;;;;;;;21.84;64.41;92482.94;5049483;28;20217;-71
2022/08/20 03:56:40;;;;;;;12.85;11.65;;;;;;;21.83;64.43;92478.75;5049030;28;20218;-72
2022/08/20 03:59:05;;;;;;;11.93;11.02;;;;;;;21.67;64.29;92469.25;5049586;28;20232;-73
2022/08/20 04:01:30;;;;;;;12.52;11.63;;;;;;;21.83;64.76;92502.66;5033461;28;20184;-71
2022/08/20 04:03:57;;;;;;;13.95;11.60;;;;;;;21.92;64.12;92503.22;5029601;28;20261;-73
2022/08/20 04:06:23;;;;;;;12.20;11.25;;;;;;;21.90;63.23;92500.13;5029497;28;20186;-71
2022/08/20 04:08:49;;;;;;;12.15;11.18;;;;;;;22.02;63.52;92488.59;5029674;28;20240;-71
2022/08/20 04:11:14;;;;;;;12.57;11.38;;;;;;;22.22;62.48;92492.75;5029777;28;20252;-71
2022/08/20 04:13:40;;;;;;;11.27;10.38;;;;;;;22.27;63.26;92501.22;5029192;28;20183;-72
2022/08/20 04:16:07;;;;;;;13.73;12.40;;;;;;;22.23;62.97;92484.44;5041111;28;20239;-73
2022/08/20 04:18:35;;;;;;;13.63;12.27;;;;;;;22.37;62.86;92496.47;5048897;28;20211;-71
2022/08/20 04:21:01;;;;;;;12.50;11.43;;;;;;;22.39;62.85;92465.72;5037801;28;20196;-71
2022/08/20 04:23:28;;;;;;;13.40;12.23;;;;;;;22.66;62.96;92501.94;5029250;28;20193;-73
2022/08/20 04:25:53;;;;;;;12.68;11.55;;;;;;;22.71;62.49;92483.00;5029715;28;20249;-71
2022/08/20 04:28:26;;;;;;;12.35;11.35;;;;;;;22.87;62.58;92504.94;5029430;28;20217;-71
2022/08/20 04:30:53;;;;;;;11.27;10.32;;;;;;;22.58;60.81;92508.28;5041202;28;20219;-71
2022/08/20 04:33:20;;;;;;;12.38;11.38;;;;;;;22.90;61.97;92504.22;5053245;28;20193;-71
2022/08/20 04:35:45;;;;;;;12.32;11.23;;;;;;;23.01;62.13;92502.50;5042919;28;20233;-71
2022/08/20 04:38:15;;;;;;;12.20;11.20;;;;;;;23.09;62.12;92496.16;5032525;28;20190;-71
2022/08/20 04:40:52;;;;;;;11.55;10.63;;;;;;;22.72;60.49;92495.19;5032046;28;20223;-72
2022/08/20 04:43:19;;;;;;;13.00;11.80;;;;;;;22.93;60.42;92514.16;5033051;28;20294;-71
2022/08/20 04:45:45;;;;;;;12.52;11.23;;;;;;;23.15;59.19;92505.38;5033665;28;20300;-71
2022/08/20 04:48:11;;;;;;;15.90;11.18;;;;;;;23.41;59.28;92500.06;5033365;28;20189;-72
2022/08/20 04:50:39;;;;;;;12.52;11.43;;;;;;;23.78;58.40;92513.53;5039863;28;20259;-72
2022/08/20 04:53:07;;;;;;;12.80;11.52;;;;;;;23.70;58.92;92517.22;5052699;28;20191;-71
2022/08/20 04:55:34;;;;;;;12.32;11.40;;;;;;;23.81;58.74;92510.16;5044099;28;20232;-73
2022/08/20 04:58:05;;;;;;;13.02;11.65;;;;;;;23.92;57.66;92512.94;5032816;28;20197;-71
2022/08/20 05:00:31;;;;;;;13.07;11.40;;;;;;;23.95;58.20;92506.88;5031897;28;20212;-71
2022/08/20 05:02:57;;;;;;;12.07;11.07;;;;;;;24.07;58.90;92501.31;5032803;28;20215;-71
2022/08/20 05:05:23;;;;;;;13.02;11.82;;;;;;;24.15;58.12;92502.94;5031752;28;20226;-71
2022/08/20 05:07:48;;;;;;;12.73;11.45;;;;;;;24.36;57.04;92505.84;5032851;28;20229;-71
2022/08/20 05:10:17;;;;;;;11.68;10.70;;;;;;;24.38;58.31;92507.03;5036374;28;20217;-72
2022/08/20 05:12:43;;;;;;;12.45;11.45;;;;;;;24.50;57.05;92511.34;5041745;28;20268;-71
2022/08/20 05:15:10;;;;;;;11.82;10.82;;;;;;;24.55;56.13;92513.66;5031922;28;20217;-71
2022/08/20 05:17:41;;;;;;;13.63;12.45;;;;;;;24.86;54.90;92529.25;5032351;28;20213;-72
2022/08/20 05:20:09;;;;;;;13.05;11.95;;;;;;;24.75;55.23;92504.34;5031564;28;20224;-71
2022/08/20 05:22:34;;;;;;;13.00;12.00;;;;;;;24.94;54.83;92523.63;5032364;28;20221;-71
2022/08/20 05:25:00;;;;;;;12.45;11.40;;;;;;;24.94;54.47;92502.25;5031393;28;20222;-71
2022/08/20 05:27:26;;;;;;;13.27;12.18;;;;;;;25.08;56.37;92520.28;5031945;28;20177;-71
2022/08/20 05:30:06;;;;;;;13.38;12.18;;;;;;;25.25;54.23;92515.09;5031560;28;20604;-72
2022/08/20 05:32:32;;;;;;;12.95;11.77;;;;;;;25.06;54.42;92512.63;5032042;28;20177;-71
2022/08/20 05:35:00;;;;;;;13.18;11.82;;;;;;;24.57;55.37;92503.38;5033942;28;20238;-71
2022/08/20 05:37:26;;;;;;;15.60;11.10;;;;;;;25.23;53.73;92497.88;5033204;28;20206;-71
2022/08/20 05:39:51;;;;;;;13.05;11.75;;;;;;;25.48;53.53;92501.50;5030587;28;20237;-70
2022/08/20 05:42:17;;;;;;;12.77;11.57;;;;;;;25.84;52.84;92503.25;5031726;28;20196;-71
2022/08/20 05:44:45;;;;;;;12.52;11.57;;;;;;;25.79;53.39;92500.91;5031554;28;20230;-72
2022/08/20 05:47:12;;;;;;;11.90;11.00;;;;;;;25.62;52.92;92512.28;5039234;28;20182;-72
2022/08/20 05:49:38;;;;;;;13.10;11.85;;;;;;;26.02;52.11;92508.72;5030990;28;20225;-71
2022/08/20 05:52:04;;;;;;;12.13;11.25;;;;;;;26.08;51.57;92513.31;5051426;28;20249;-71
2022/08/20 05:54:30;;;;;;;12.82;11.70;;;;;;;26.51;49.24;92504.28;5050958;28;20253;-73
2022/08/20 05:56:56;;;;;;;11.80;10.73;;;;;;;26.26;50.27;92505.34;5032351;28;20778;-71
2022/08/20 05:59:23;;;;;;;11.90;10.90;;;;;;;26.62;50.00;92494.34;5031265;28;20293;-72
2022/08/20 06:01:48;;;;;;;13.35;12.05;;;;;;;26.25;50.48;92501.91;5031370;28;20179;-71
2022/08/20 06:04:30;;;;;;;11.95;10.95;;;;;;;26.50;50.06;92465.28;5031499;28;20225;-71
2022/08/20 06:07:06;;;;;;;12.68;11.55;;;;;;;27.39;48.65;92512.47;5049812;28;20226;-71
2022/08/20 06:09:32;;;;;;;12.80;11.48;;;;;;;29.47;43.82;92515.75;5051301;28;20225;-72
2022/08/20 06:12:02;;;;;;;11.10;10.10;;;;;;;31.89;37.59;92517.28;5027202;28;20194;-71
2022/08/20 06:14:28;;;;;;;13.77;11.50;;;;;;;32.66;35.80;92512.31;5011268;28;20227;-71
2022/08/20 06:16:53;;;;;;;12.07;10.57;;;;;;;31.33;37.86;92523.63;5047102;28;20219;-73
2022/08/20 06:19:18;;;;;;;12.57;11.38;;;;;;;29.21;42.34;92520.97;5050995;28;20230;-71
2022/08/20 06:21:44;;;;;;;11.48;10.45;;;;;;;28.28;44.88;92521.84;5033598;28;20189;-72
2022/08/20 06:24:09;;;;;;;12.27;11.07;;;;;;;27.57;47.17;92507.06;5029916;28;20206;-71
2022/08/20 06:26:35;;;;;;;12.60;11.50;;;;;;;27.64;47.69;92523.16;5030932;28;20974;-73
2022/08/20 06:29:03;;;;;;;13.00;11.73;;;;;;;26.92;49.67;92518.16;5030712;28;20227;-71
2022/08/20 06:31:28;;;;;;;13.40;12.35;;;;;;;27.32;48.42;92515.13;5030506;28;20186;-71
2022/08/20 06:33:54;;;;;;;14.43;11.85;;;;;;;26.85;49.30;92512.03;5030753;28;20246;-70
2022/08/20 06:36:20;;;;;;;15.70;10.85;;;;;;;27.15;48.99;92518.56;5030411;28;20214;-70
2022/08/20 06:38:45;;;;;;;11.40;10.40;;;;;;;27.30;48.77;92506.69;5031020;28;20230;-72
2022/08/20 06:41:11;;;;;;;12.75;11.40;;;;;;;27.14;49.69;92513.56;5030709;28;20183;-71
2022/08/20 06:43:36;;;;;;;12.23;11.20;;;;;;;27.49;49.97;92516.25;5030316;28;20206;-72
2022/08/20 06:46:02;;;;;;;12.18;11.18;;;;;;;27.24;49.13;92507.47;5030292;28;20226;-71
2022/08/20 06:48:27;;;;;;;13.30;12.02;;;;;;;27.49;50.08;92517.03;5030161;28;20181;-72
2022/08/20 06:50:53;;;;;;;12.20;11.20;;;;;;;27.08;50.00;92478.34;5030519;28;20202;-71
2022/08/20 06:53:19;;;;;;;13.82;11.43;;;;;;;27.09;51.50;92493.28;5030103;28;20179;-71
2022/08/20 06:55:50;;;;;;;14.13;12.70;;;;;;;27.37;51.35;92514.75;5029866;28;20226;-71
2022/08/20 06:58:16;;;;;;;16.35;12.07;;;;;;;27.42;50.94;92509.00;5030737;28;20235;-72
2022/08/20 07:00:43;;;;;;;12.48;11.40;;;;;;;27.50;50.91;92493.66;5038102;28;20222;-72
2022/08/20 07:03:08;;;;;;;12.30;11.07;;;;;;;27.73;49.62;92502.03;5050371;28;20178;-74
2022/08/20 07:05:41;;;;;;;16.88;12.60;;;;;;;27.69;50.46;92506.66;5041642;28;20238;-71
2022/08/20 07:08:12;;;;;;;13.43;12.23;;;;;;;27.85;49.19;92499.72;5030746;28;20229;-69
2022/08/20 07:10:38;;;;;;;13.48;11.85;;;;;;;27.64;50.27;92493.63;5029955;28;20222;-71
2022/08/20 07:13:05;;;;;;;14.10;11.90;;;;;;;27.66;49.98;92481.34;5017020;28;20226;-72
2022/08/20 07:15:31;;;;;;;12.50;11.38;;;;;;;27.84;50.06;92492.06;5023918;28;20237;-72
2022/08/20 07:18:00;;;;;;;13.13;11.98;;;;;;;27.72;49.53;92487.84;5050229;28;20174;-72
2022/08/20 07:20:26;;;;;;;13.45;11.40;;;;;;;27.74;49.59;92490.16;5042646;28;20230;-71
2022/08/20 07:22:52;;;;;;;12.60;10.35;;;;;;;27.81;49.47;92490.16;5030381;28;20236;-70
2022/08/20 07:25:20;;;;;;;13.38;12.13;;;;;;;27.50;49.90;92489.06;5034561;28;20226;-71
2022/08/20 07:27:46;;;;;;;13.00;11.68;;;;;;;27.68;49.36;92487.13;5049221;28;20219;-71
2022/08/20 07:33:02;;;;;;;14.18;13.02;;;;;;;27.58;50.57;92457.63;5030222;28;20194;-71
2022/08/20 07:35:27;;;;;;;13.93;12.77;;;;;;;27.90;50.09;92482.47;5035396;28;20253;-72
2022/08/20 07:37:56;;;;;;;12.63;11.20;;;;;;;27.60;50.59;92479.44;5036701;28;20234;-71
2022/08/20 07:40:32;;;;;;;13.05;11.77;;;;;;;27.20;51.34;92483.31;5034249;28;20218;-71
2022/08/20 07:42:59;;;;;;;13.00;11.90;;;;;;;27.24;51.68;92483.31;5049893;28;20174;-71
2022/08/20 07:45:25;;;;;;;14.20;12.77;;;;;;;27.51;51.75;92490.59;5048661;28;20222;-71
2022/08/20 07:47:54;;;;;;;14.77;11.93;;;;;;;27.90;50.88;92469.06;5033357;28;20186;-71
2022/08/20 07:50:25;;;;;;;13.32;11.90;;;;;;;28.29;49.08;92488.47;5029754;28;20207;-71
2022/08/20 07:52:51;;;;;;;12.68;11.55;;;;;;;28.40;48.72;92483.81;5030052;28;20190;-72
2022/08/20 07:55:19;;;;;;;12.48;11.55;;;;;;;28.41;48.80;92488.00;5029744;28;20227;-72
2022/08/20 07:57:47;;;;;;;12.48;11.43;;;;;;;28.51;48.37;92487.22;5029208;28;20210;-72
2022/08/20 08:00:13;;;;;;;13.15;11.98;;;;;;;28.61;48.30;92480.28;5034004;28;20210;-71
2022/08/20 08:02:39;;;;;;;12.60;11.60;;;;;;;28.56;48.40;92470.72;5049572;28;20182;-72
2022/08/20 08:05:06;;;;;;;13.60;12.32;;;;;;;28.95;47.55;92484.63;5048100;28;20309;-71
2022/08/20 08:07:32;;;;;;;13.93;12.18;;;;;;;28.73;47.64;92472.53;5033480;28;20225;-72
2022/08/20 08:10:00;;;;;;;13.85;12.13;;;;;;;28.62;46.80;92479.88;5032919;28;20232;-72
2022/08/20 08:12:33;;;;;;;13.32;12.13;;;;;;;28.75;48.08;92480.94;5025328;28;20759;-71
2022/08/20 08:14:59;;;;;;;12.82;11.82;;;;;;;28.56;47.77;92462.66;5016248;28;20222;-72
2022/08/20 08:17:24;;;;;;;13.10;12.10;;;;;;;28.77;47.78;92480.53;5033636;28;20259;-72
2022/08/20 08:19:50;;;;;;;14.02;12.82;;;;;;;29.00;46.95;92486.91;5031869;28;20233;-71
2022/08/20 08:22:18;;;;;;;12.27;11.20;;;;;;;28.92;46.83;92485.41;5033678;28;20246;-71
2022/08/20 08:24:45;;;;;;;13.55;12.18;;;;;;;28.82;46.69;92478.22;5032849;28;20229;-72
2022/08/20 08:27:12;;;;;;;14.05;12.80;;;;;;;28.58;47.80;92475.69;5033337;28;20182;-72
2022/08/20 08:29:38;;;;;;;13.00;11.85;;;;;;;28.59;47.16;92458.41;5032831;28;20284;-71
2022/08/20 08:32:05;;;;;;;12.55;11.55;;;;;;;28.86;47.72;92476.25;5013398;28;20191;-71
2022/08/20 08:34:34;;;;;;;13.32;11.95;;;;;;;28.83;46.40;92476.28;5012853;28;20233;-72
2022/08/20 08:37:01;;;;;;;12.55;11.45;;;;;;;28.86;47.39;92470.88;5032326;28;20701;-71
2022/08/20 08:39:30;;;;;;;18.65;12.70;;;;;;;28.92;46.81;92463.91;5033633;28;20230;-72
2022/08/20 08:41:57;;;;;;;11.98;11.07;;;;;;;28.92;47.08;92458.53;5032917;28;20216;-72
2022/08/20 08:44:34;;;;;;;13.25;12.15;;;;;;;28.94;46.65;92464.28;5032600;28;20235;-71
2022/08/20 08:47:02;;;;;;;13.00;11.93;;;;;;;28.79;47.34;92460.19;5034621;28;20189;-71
2022/08/20 08:49:35;;;;;;;15.10;12.65;;;;;;;28.80;46.91;92460.94;5032525;28;20249;-71
2022/08/20 08:52:06;;;;;;;12.52;11.32;;;;;;;28.99;47.10;92458.50;5032521;28;20194;-72
2022/08/20 08:54:33;;;;;;;13.23;12.00;;;;;;;29.03;47.57;92451.16;5032567;28;20230;-72
2022/08/20 08:57:00;;;;;;;13.90;12.43;;;;;;;29.31;46.74;92453.63;5051285;28;20911;-72
2022/08/20 08:59:29;;;;;;;13.95;12.60;;;;;;;29.54;45.09;92451.09;5052275;28;20271;-73
2022/08/20 09:01:57;;;;;;;12.70;11.50;;;;;;;29.56;45.39;92442.63;5033786;28;20218;-72
2022/08/20 09:04:31;;;;;;;14.00;12.55;;;;;;;29.55;45.84;92449.97;5032253;28;20225;-72
2022/08/20 09:06:57;;;;;;;12.60;11.40;;;;;;;29.36;45.61;92444.38;5051246;28;20229;-71
2022/08/20 09:09:36;;;;;;;13.48;12.20;;;;;;;29.19;46.13;92432.63;5052465;28;20233;-71
2022/08/20 09:12:13;;;;;;;12.07;10.98;;;;;;;29.24;45.98;92445.66;5032273;28;20190;-71
2022/08/20 09:14:39;;;;;;;12.93;11.80;;;;;;;29.54;45.08;92447.66;5031771;28;20226;-73
2022/08/20 09:17:05;;;;;;;12.55;11.45;;;;;;;29.71;44.84;92449.44;5031123;28;20216;-72
2022/08/20 09:19:30;;;;;;;13.25;12.15;;;;;;;29.62;44.56;92430.28;5031788;28;20226;-72
2022/08/20 09:21:56;;;;;;;12.57;11.40;;;;;;;29.70;44.74;92440.59;5031870;28;20217;-71
2022/08/20 09:24:21;;;;;;;11.90;10.90;;;;;;;29.83;43.62;92450.84;5031544;28;20226;-72
2022/08/20 09:26:47;;;;;;;13.98;12.68;;;;;;;29.64;44.29;92444.88;5049484;28;20185;-71
2022/08/20 09:29:12;;;;;;;12.07;11.10;;;;;;;29.48;44.00;92416.97;5051707;28;20225;-72
2022/08/20 09:31:38;;;;;;;13.20;11.90;;;;;;;29.62;42.80;92438.38;5034626;28;20193;-72
2022/08/20 09:34:03;;;;;;;12.52;11.38;;;;;;;29.57;44.75;92442.22;5031594;28;20233;-73
2022/08/20 09:36:29;;;;;;;12.70;11.60;;;;;;;29.79;44.30;92444.75;5045021;28;20296;-71
2022/08/20 09:38:54;;;;;;;13.30;12.10;;;;;;;29.73;44.37;92420.19;5031908;28;20234;-71
2022/08/20 09:41:20;;;;;;;13.27;12.10;;;;;;;29.81;42.78;92410.84;5044219;28;20271;-72
2022/08/20 09:43:45;;;;;;;12.05;11.02;;;;;;;30.08;42.61;92422.47;5051322;28;20233;-72
2022/08/20 09:46:11;;;;;;;12.48;11.32;;;;;;;30.19;41.69;92441.19;5039950;28;20185;-73
2022/08/20 09:48:36;;;;;;;13.25;11.93;;;;;;;29.97;41.62;92440.69;5031443;28;20182;-72
2022/08/20 09:51:02;;;;;;;12.30;11.13;;;;;;;30.07;41.97;92439.03;5031500;28;20190;-73
2022/08/20 09:53:29;;;;;;;13.63;12.52;;;;;;;29.71;43.10;92420.56;5031244;28;20187;-72
2022/08/20 09:55:55;;;;;;;11.55;10.57;;;;;;;29.98;42.79;92406.44;5031334;28;20218;-72
2022/08/20 09:58:48;;;;;;;12.88;11.88;;;;;;;30.05;41.65;92382.88;5031795;28;20281;-71
2022/08/20 10:01:16;;;;;;;11.65;10.75;;;;;;;30.13;42.31;92426.63;5023294;28;20233;-70
2022/08/20 10:03:43;;;;;;;11.18;10.27;;;;;;;30.35;41.26;92433.31;5031384;28;20182;-72
2022/08/20 10:06:10;;;;;;;12.00;11.10;;;;;;;30.32;41.06;92429.47;5031221;28;20204;-71
2022/08/20 10:08:35;;;;;;;12.88;11.88;;;;;;;30.26;40.24;92408.81;5031195;28;20233;-72
2022/08/20 10:11:01;;;;;;;12.82;11.73;;;;;;;30.49;40.52;92422.34;5031314;28;20198;-72
2022/08/20 10:13:26;;;;;;;13.93;12.07;;;;;;;29.92;39.99;92389.97;5027474;28;20198;-72
2022/08/20 10:15:52;;;;;;;13.27;12.13;;;;;;;29.54;42.14;92429.56;5031009;28;20194;-71
2022/08/20 10:18:17;;;;;;;14.30;13.00;;;;;;;30.17;41.18;92417.34;5031387;28;20217;-72
2022/08/20 10:20:42;;;;;;;12.07;11.10;;;;;;;30.65;39.71;92419.78;5030829;28;20810;-71
2022/08/20 10:23:08;;;;;;;12.68;11.48;;;;;;;30.57;39.40;92407.59;5031150;28;20298;-71
2022/08/20 10:25:33;;;;;;;12.23;11.13;;;;;;;30.41;38.76;92426.28;5030457;28;20240;-71
2022/08/20 10:27:59;;;;;;;13.32;12.02;;;;;;;30.33;38.10;92403.31;5029967;28;20187;-71
2022/08/20 10:30:24;;;;;;;13.43;12.27;;;;;;;30.44;37.91;92410.09;5030486;28;20222;-71
2022/08/20 10:32:50;;;;;;;13.15;11.27;;;;;;;30.59;38.72;92421.41;5031211;28;20203;-72
2022/08/20 10:35:16;;;;;;;12.90;11.90;;;;;;;29.61;39.15;92417.97;5030337;28;20214;-71
2022/08/20 10:37:41;;;;;;;12.63;11.52;;;;;;;29.22;40.79;92396.09;5030832;28;20202;-71
2022/08/20 10:40:08;;;;;;;11.82;10.80;;;;;;;29.21;40.42;92400.72;5030712;28;20336;-71
2022/08/20 10:42:33;;;;;;;12.70;11.60;;;;;;;29.54;40.85;92415.38;5030814;28;20201;-72
2022/08/20 10:44:59;;;;;;;12.95;11.60;;;;;;;29.86;40.89;92388.09;5030347;28;20234;-72
2022/08/20 10:47:29;;;;;;;11.95;11.00;;;;;;;29.57;41.32;92411.88;5032795;28;20221;-72
2022/08/20 10:49:58;;;;;;;13.23;12.13;;;;;;;29.92;41.24;92410.75;5030324;28;20226;-71
2022/08/20 10:52:25;;;;;;;12.82;11.68;;;;;;;30.16;41.70;92401.59;5030834;28;20174;-71
2022/08/20 10:54:51;;;;;;;12.73;11.52;;;;;;;30.39;37.74;92397.06;5030270;28;20294;-72
2022/08/20 10:57:23;;;;;;;11.57;10.77;;;;;;;30.82;36.75;92397.97;5029838;28;20225;-72
2022/08/20 10:59:50;;;;;;;12.15;11.10;;;;;;;30.98;37.56;92394.63;5029980;28;20292;-72
2022/08/20 11:02:16;;;;;;;12.35;11.35;;;;;;;31.17;37.73;92396.63;5030707;28;20187;-72
2022/08/20 11:04:43;;;;;;;12.52;11.52;;;;;;;30.87;37.49;92389.44;5029755;28;20230;-71
2022/08/20 11:07:33;;;;;;;11.68;10.82;;;;;;;31.54;36.57;92404.47;5030578;28;20279;-72
2022/08/20 11:09:58;;;;;;;11.57;10.40;;;;;;;32.01;35.40;92405.91;5029857;28;20243;-72
2022/08/20 11:12:24;;;;;;;12.60;11.48;;;;;;;32.20;35.75;92391.63;5021684;28;20168;-71
2022/08/20 11:14:51;;;;;;;12.40;11.20;;;;;;;32.64;35.97;92398.44;5027734;28;20913;-72
2022/08/20 11:17:20;;;;;;;12.20;11.20;;;;;;;32.57;35.24;92390.47;5030205;28;20213;-72
2022/08/20 11:19:46;;;;;;;12.30;11.10;;;;;;;32.20;35.87;92388.94;5029371;28;20231;-72
2022/08/20 11:22:11;;;;;;;14.60;10.63;;;;;;;31.97;36.48;92377.47;5030442;28;20189;-72
2022/08/20 11:24:37;;;;;;;12.57;11.57;;;;;;;32.04;36.02;92386.19;5029568;28;20226;-71